createdAt,value
2019-05-21T00:00:40.940Z,0.00
2019-05-21T00:01:40.968Z,0.00
2019-05-21T00:02:40.993Z,0.00
2019-05-21T00:03:41.017Z,0.00
2019-05-21T00:04:41.055Z,0.00
2019-05-21T00:05:41.070Z,0.00
2019-05-21T00:06:41.099Z,0.00
2019-05-21T00:07:41.134Z,0.00
2019-05-21T00:08:41.151Z,0.00
2019-05-21T00:09:41.176Z,0.00
2019-05-21T00:10:41.202Z,0.00
2019-05-21T00:11:41.231Z,0.00
2019-05-21T00:12:41.260Z,0.00
2019-05-21T00:13:41.286Z,0.00
2019-05-21T00:14:41.308Z,0.00
2019-05-21T00:15:41.338Z,0.00
2019-05-21T00:16:41.367Z,0.00
2019-05-21T00:17:41.390Z,0.00
2019-05-21T00:18:41.413Z,0.00
2019-05-21T00:19:41.444Z,0.00
2019-05-21T00:20:41.484Z,0.00
2019-05-21T00:21:41.492Z,0.00
2019-05-21T00:22:41.525Z,0.00
2019-05-21T00:23:41.557Z,0.00
2019-05-21T00:24:41.592Z,0.00
2019-05-21T00:25:41.600Z,0.00
2019-05-21T00:26:41.623Z,0.00
2019-05-21T00:27:41.655Z,0.00
2019-05-21T00:28:41.681Z,0.00
2019-05-21T00:29:41.704Z,0.00
2019-05-21T00:30:41.728Z,0.00
2019-05-21T00:31:41.759Z,0.00
2019-05-21T00:32:41.782Z,0.00
2019-05-21T00:33:41.816Z,0.00
2019-05-21T00:34:44.252Z,0.00
2019-05-21T00:35:41.865Z,0.00
2019-05-21T00:36:41.905Z,0.00
2019-05-21T00:37:41.916Z,0.00
2019-05-21T00:38:41.942Z,0.00
2019-05-21T00:39:41.974Z,0.00
2019-05-21T00:40:41.994Z,0.00
2019-05-21T00:41:42.042Z,0.00
2019-05-21T00:42:42.052Z,0.00
2019-05-21T00:43:42.080Z,0.00
2019-05-21T00:44:42.101Z,0.00
2019-05-21T00:45:42.124Z,0.00
2019-05-21T00:46:42.151Z,0.00
2019-05-21T00:47:42.177Z,0.00
2019-05-21T00:48:42.211Z,0.00
2019-05-21T00:49:42.235Z,0.00
2019-05-21T00:50:42.256Z,0.00
2019-05-21T00:51:42.286Z,0.00
2019-05-21T00:52:42.308Z,0.00
2019-05-21T00:53:42.334Z,0.00
2019-05-21T00:54:42.365Z,0.00
2019-05-21T00:55:42.387Z,0.00
2019-05-21T00:56:42.414Z,0.00
2019-05-21T00:57:42.439Z,0.00
2019-05-21T00:58:42.468Z,0.00
2019-05-21T00:59:42.494Z,0.00
2019-05-21T01:00:42.520Z,0.00
2019-05-21T01:01:42.554Z,0.00
2019-05-21T01:02:42.578Z,0.00
2019-05-21T01:03:43.381Z,0.00
2019-05-21T01:04:42.627Z,0.00
2019-05-21T01:05:42.666Z,0.00
2019-05-21T01:06:42.690Z,0.00
2019-05-21T01:07:42.704Z,0.00
2019-05-21T01:08:42.734Z,0.00
2019-05-21T01:09:42.754Z,0.00
2019-05-21T01:10:42.782Z,0.00
2019-05-21T01:11:42.806Z,0.00
2019-05-21T01:12:42.838Z,0.00
2019-05-21T01:13:42.871Z,0.00
2019-05-21T01:14:42.884Z,0.00
2019-05-21T01:15:42.918Z,0.00
2019-05-21T01:16:42.944Z,0.00
2019-05-21T01:17:42.970Z,0.00
2019-05-21T01:18:43.011Z,0.00
2019-05-21T01:19:43.022Z,0.00
2019-05-21T01:20:43.054Z,0.00
2019-05-21T01:21:43.078Z,0.00
2019-05-21T01:22:43.136Z,0.00
2019-05-21T01:23:43.139Z,0.00
2019-05-21T01:24:43.150Z,0.00
2019-05-21T01:25:43.186Z,0.00
2019-05-21T01:26:43.204Z,0.00
2019-05-21T01:27:43.232Z,0.00
2019-05-21T01:28:43.258Z,0.00
2019-05-21T01:29:43.291Z,0.00
2019-05-21T01:30:43.313Z,0.00
2019-05-21T01:31:43.334Z,0.00
2019-05-21T01:32:43.358Z,0.00
2019-05-21T01:33:43.386Z,0.00
2019-05-21T01:34:43.414Z,0.00
2019-05-21T01:35:43.449Z,0.00
2019-05-21T01:36:43.465Z,0.00
2019-05-21T01:37:43.493Z,0.00
2019-05-21T01:38:43.601Z,0.00
2019-05-21T01:39:43.544Z,0.00
2019-05-21T01:40:43.571Z,0.00
2019-05-21T01:41:43.601Z,0.00
2019-05-21T01:42:43.621Z,0.00
2019-05-21T01:43:43.659Z,0.00
2019-05-21T01:44:43.679Z,0.00
2019-05-21T01:45:43.704Z,0.00
2019-05-21T01:46:43.740Z,0.00
2019-05-21T01:47:43.752Z,0.00
2019-05-21T01:48:43.784Z,0.00
2019-05-21T01:49:43.812Z,0.00
2019-05-21T01:50:43.833Z,0.00
2019-05-21T01:51:43.876Z,0.00
2019-05-21T01:52:43.957Z,0.00
2019-05-21T01:53:43.913Z,0.00
2019-05-21T01:54:43.933Z,0.00
2019-05-21T01:55:43.967Z,0.00
2019-05-21T01:56:43.992Z,0.00
2019-05-21T01:57:44.018Z,0.00
2019-05-21T01:58:44.040Z,0.00
2019-05-21T01:59:44.069Z,0.00
2019-05-21T02:00:44.101Z,0.00
2019-05-21T02:01:44.122Z,0.00
2019-05-21T02:02:44.153Z,0.00
2019-05-21T02:03:44.173Z,0.00
2019-05-21T02:04:44.256Z,0.00
2019-05-21T02:05:44.228Z,0.00
2019-05-21T02:06:44.247Z,0.00
2019-05-21T02:07:44.277Z,0.00
2019-05-21T02:08:44.305Z,0.00
2019-05-21T02:09:44.331Z,0.00
2019-05-21T02:10:44.359Z,0.00
2019-05-21T02:11:44.384Z,0.00
2019-05-21T02:12:44.413Z,0.00
2019-05-21T02:13:44.439Z,0.00
2019-05-21T02:14:44.466Z,0.00
2019-05-21T02:15:44.486Z,0.00
2019-05-21T02:16:44.520Z,0.00
2019-05-21T02:17:44.538Z,0.00
2019-05-21T02:18:44.567Z,0.00
2019-05-21T02:19:44.598Z,0.00
2019-05-21T02:20:44.617Z,0.00
2019-05-21T02:21:44.640Z,0.00
2019-05-21T02:22:44.669Z,0.00
2019-05-21T02:23:44.701Z,0.00
2019-05-21T02:24:44.723Z,0.00
2019-05-21T02:25:44.747Z,0.00
2019-05-21T02:26:44.776Z,0.00
2019-05-21T02:27:44.806Z,0.00
2019-05-21T02:28:44.830Z,0.00
2019-05-21T02:29:44.860Z,0.00
2019-05-21T02:30:44.883Z,0.00
2019-05-21T02:31:44.923Z,0.00
2019-05-21T02:32:44.929Z,0.00
2019-05-21T02:33:44.960Z,0.00
2019-05-21T02:34:44.987Z,0.00
2019-05-21T02:35:54.049Z,0.00
2019-05-21T02:36:45.038Z,0.00
2019-05-21T02:37:45.061Z,0.00
2019-05-21T02:38:45.149Z,0.00
2019-05-21T02:39:45.121Z,0.00
2019-05-21T02:40:45.152Z,0.00
2019-05-21T02:41:45.178Z,0.00
2019-05-21T02:42:45.205Z,0.00
2019-05-21T02:43:45.262Z,0.00
2019-05-21T02:44:45.247Z,0.00
2019-05-21T02:45:45.275Z,0.00
2019-05-21T02:46:45.296Z,0.00
2019-05-21T02:47:45.324Z,0.00
2019-05-21T02:48:45.349Z,0.00
2019-05-21T02:49:45.375Z,0.00
2019-05-21T02:50:45.403Z,0.00
2019-05-21T02:51:45.454Z,0.00
2019-05-21T02:52:45.453Z,0.00
2019-05-21T02:53:45.483Z,0.00
2019-05-21T02:54:45.510Z,0.00
2019-05-21T02:55:45.532Z,0.00
2019-05-21T02:56:45.577Z,0.00
2019-05-21T02:57:45.591Z,0.00
2019-05-21T02:58:45.621Z,0.00
2019-05-21T02:59:45.643Z,0.00
2019-05-21T03:00:45.662Z,0.00
2019-05-21T03:01:45.693Z,0.00
2019-05-21T03:02:45.722Z,0.00
2019-05-21T03:03:45.739Z,0.00
2019-05-21T03:04:45.771Z,0.00
2019-05-21T03:05:45.793Z,0.00
2019-05-21T03:06:45.838Z,0.00
2019-05-21T03:07:45.843Z,0.00
2019-05-21T03:08:45.868Z,0.00
2019-05-21T03:09:45.903Z,0.00
2019-05-21T03:10:45.934Z,0.00
2019-05-21T03:11:45.946Z,0.00
2019-05-21T03:12:45.975Z,0.00
2019-05-21T03:13:45.997Z,0.00
2019-05-21T03:14:46.030Z,0.00
2019-05-21T03:15:46.059Z,0.00
2019-05-21T03:16:46.079Z,0.00
2019-05-21T03:17:46.100Z,0.00
2019-05-21T03:18:46.152Z,0.00
2019-05-21T03:19:46.154Z,0.00
2019-05-21T03:20:46.185Z,0.00
2019-05-21T03:21:46.209Z,0.00
2019-05-21T03:22:46.234Z,5.63
2019-05-21T03:23:46.273Z,5.63
2019-05-21T03:24:46.293Z,5.63
2019-05-21T03:25:46.312Z,5.63
2019-05-21T03:26:46.337Z,5.63
2019-05-21T03:27:46.364Z,5.63
2019-05-21T03:28:46.391Z,5.63
2019-05-21T03:29:46.423Z,5.63
2019-05-21T03:30:46.442Z,5.63
2019-05-21T03:31:46.471Z,5.63
2019-05-21T03:32:46.502Z,5.63
2019-05-21T03:33:46.521Z,5.63
2019-05-21T03:34:46.545Z,5.63
2019-05-21T03:35:46.589Z,5.63
2019-05-21T03:36:46.597Z,5.63
2019-05-21T03:37:46.628Z,5.63
2019-05-21T03:38:46.651Z,5.63
2019-05-21T03:39:46.673Z,11.25
2019-05-21T03:40:46.703Z,11.25
2019-05-21T03:41:46.727Z,11.25
2019-05-21T03:42:46.752Z,11.25
2019-05-21T03:43:46.786Z,11.25
2019-05-21T03:44:58.925Z,11.25
2019-05-21T03:45:46.828Z,11.25
2019-05-21T03:46:46.876Z,11.25
2019-05-21T03:47:46.891Z,11.25
2019-05-21T03:48:46.945Z,11.25
2019-05-21T03:49:46.937Z,11.25
2019-05-21T03:50:46.961Z,11.25
2019-05-21T03:51:46.989Z,16.88
2019-05-21T03:52:47.012Z,16.88
2019-05-21T03:53:47.037Z,16.88
2019-05-21T03:54:47.069Z,16.88
2019-05-21T03:55:47.085Z,16.88
2019-05-21T03:56:47.116Z,16.88
2019-05-21T03:57:47.143Z,16.88
2019-05-21T03:58:47.174Z,16.88
2019-05-21T03:59:47.193Z,16.88
2019-05-21T04:00:47.231Z,16.88
2019-05-21T04:01:47.254Z,22.50
2019-05-21T04:02:47.280Z,22.50
2019-05-21T04:03:47.299Z,22.50
2019-05-21T04:04:47.328Z,22.50
2019-05-21T04:05:47.361Z,22.50
2019-05-21T04:06:51.856Z,22.50
2019-05-21T04:07:47.402Z,22.50
2019-05-21T04:08:47.430Z,22.50
2019-05-21T04:09:47.462Z,22.50
2019-05-21T04:10:47.481Z,28.13
2019-05-21T04:11:47.504Z,28.13
2019-05-21T04:12:47.531Z,28.13
2019-05-21T04:13:47.562Z,28.13
2019-05-21T04:14:47.586Z,28.13
2019-05-21T04:15:47.612Z,28.13
2019-05-21T04:16:47.635Z,28.13
2019-05-21T04:17:47.661Z,28.13
2019-05-21T04:18:47.686Z,28.13
2019-05-21T04:19:47.713Z,28.13
2019-05-21T04:20:47.746Z,28.13
2019-05-21T04:21:47.772Z,28.13
2019-05-21T04:22:47.792Z,28.13
2019-05-21T04:23:47.824Z,28.13
2019-05-21T04:24:47.840Z,28.13
2019-05-21T04:25:47.871Z,28.13
2019-05-21T04:26:47.903Z,28.13
2019-05-21T04:27:47.926Z,28.13
2019-05-21T04:28:47.944Z,28.13
2019-05-21T04:29:47.979Z,33.75
2019-05-21T04:30:47.997Z,33.75
2019-05-21T04:31:48.028Z,33.75
2019-05-21T04:32:48.050Z,33.75
2019-05-21T04:33:48.076Z,33.75
2019-05-21T04:34:48.104Z,33.75
2019-05-21T04:35:48.126Z,33.75
2019-05-21T04:36:48.153Z,33.75
2019-05-21T04:37:48.180Z,33.75
2019-05-21T04:38:48.253Z,39.38
2019-05-21T04:39:48.269Z,39.38
2019-05-21T04:40:48.274Z,39.38
2019-05-21T04:41:48.287Z,39.38
2019-05-21T04:42:48.317Z,39.38
2019-05-21T04:43:48.345Z,39.38
2019-05-21T04:44:48.378Z,39.38
2019-05-21T04:45:48.384Z,45.00
2019-05-21T04:46:48.420Z,45.00
2019-05-21T04:47:48.442Z,45.00
2019-05-21T04:48:48.469Z,45.00
2019-05-21T04:49:48.511Z,45.00
2019-05-21T04:50:48.521Z,45.00
2019-05-21T04:51:48.554Z,45.00
2019-05-21T04:52:48.572Z,45.00
2019-05-21T04:53:48.600Z,45.00
2019-05-21T04:54:48.632Z,45.00
2019-05-21T04:55:48.647Z,50.63
2019-05-21T04:56:48.673Z,50.63
2019-05-21T04:57:48.716Z,50.63
2019-05-21T04:58:48.760Z,50.63
2019-05-21T04:59:48.764Z,50.63
2019-05-21T05:00:48.780Z,50.63
2019-05-21T05:01:48.805Z,50.63
2019-05-21T05:02:48.831Z,50.63
2019-05-21T05:03:48.862Z,50.63
2019-05-21T05:04:48.883Z,50.63
2019-05-21T05:05:48.919Z,50.63
2019-05-21T05:06:48.933Z,50.63
2019-05-21T05:07:48.970Z,50.63
2019-05-21T05:08:49.007Z,50.63
2019-05-21T05:09:49.018Z,50.63
2019-05-21T05:10:49.500Z,50.63
2019-05-21T05:11:49.067Z,50.63
2019-05-21T05:12:49.093Z,50.63
2019-05-21T05:13:49.135Z,50.63
2019-05-21T05:14:49.143Z,50.63
2019-05-21T05:15:49.173Z,50.63
2019-05-21T05:16:49.206Z,50.63
2019-05-21T05:17:49.236Z,50.63
2019-05-21T05:18:49.258Z,56.25
2019-05-21T05:19:49.274Z,56.25
2019-05-21T05:20:49.310Z,56.25
2019-05-21T05:21:49.327Z,56.25
2019-05-21T05:22:49.358Z,56.25
2019-05-21T05:23:49.379Z,56.25
2019-05-21T05:24:49.410Z,56.25
2019-05-21T05:25:49.433Z,56.25
2019-05-21T05:26:49.465Z,56.25
2019-05-21T05:27:49.481Z,56.25
2019-05-21T05:28:49.505Z,56.25
2019-05-21T05:29:49.555Z,56.25
2019-05-21T05:30:49.563Z,56.25
2019-05-21T05:31:49.587Z,56.25
2019-05-21T05:32:49.621Z,56.25
2019-05-21T05:33:49.639Z,56.25
2019-05-21T05:34:49.672Z,56.25
2019-05-21T05:35:49.692Z,56.25
2019-05-21T05:36:49.717Z,56.25
2019-05-21T05:37:49.741Z,56.25
2019-05-21T05:38:49.772Z,56.25
2019-05-21T05:39:49.805Z,56.25
2019-05-21T05:40:49.823Z,56.25
2019-05-21T05:41:49.849Z,56.25
2019-05-21T05:42:49.875Z,61.88
2019-05-21T05:43:49.902Z,56.25
2019-05-21T05:44:49.932Z,56.25
2019-05-21T05:45:49.959Z,56.25
2019-05-21T05:46:49.981Z,56.25
2019-05-21T05:47:50.010Z,61.88
2019-05-21T05:48:50.030Z,61.88
2019-05-21T05:49:50.059Z,61.88
2019-05-21T05:50:50.085Z,61.88
2019-05-21T05:51:50.113Z,61.88
2019-05-21T05:52:50.138Z,61.88
2019-05-21T05:53:50.163Z,61.88
2019-05-21T05:54:50.234Z,61.88
2019-05-21T05:55:50.215Z,61.88
2019-05-21T05:56:50.244Z,61.88
2019-05-21T05:57:50.266Z,61.88
2019-05-21T05:58:50.297Z,61.88
2019-05-21T05:59:50.339Z,61.88
2019-05-21T06:00:50.348Z,61.88
2019-05-21T06:01:50.402Z,61.88
2019-05-21T06:02:50.397Z,61.88
2019-05-21T06:03:50.433Z,61.88
2019-05-21T06:04:50.456Z,61.88
2019-05-21T06:05:50.479Z,61.88
2019-05-21T06:06:50.506Z,61.88
2019-05-21T06:07:59.366Z,61.88
2019-05-21T06:08:50.561Z,61.88
2019-05-21T06:09:50.587Z,61.88
2019-05-21T06:10:50.611Z,61.88
2019-05-21T06:11:50.641Z,61.88
2019-05-21T06:12:50.713Z,61.88
2019-05-21T06:13:50.702Z,67.50
2019-05-21T06:14:50.718Z,61.88
2019-05-21T06:15:50.755Z,67.50
2019-05-21T06:16:50.768Z,61.88
2019-05-21T06:17:50.794Z,67.50
2019-05-21T06:18:50.826Z,67.50
2019-05-21T06:19:50.853Z,61.88
2019-05-21T06:20:50.873Z,67.50
2019-05-21T06:21:50.905Z,67.50
2019-05-21T06:22:50.932Z,67.50
2019-05-21T06:23:50.953Z,67.50
2019-05-21T06:24:50.977Z,67.50
2019-05-21T06:25:51.009Z,67.50
2019-05-21T06:26:51.030Z,67.50
2019-05-21T06:27:51.072Z,67.50
2019-05-21T06:28:51.082Z,67.50
2019-05-21T06:29:51.114Z,67.50
2019-05-21T06:30:51.141Z,67.50
2019-05-21T06:31:51.174Z,67.50
2019-05-21T06:32:51.190Z,67.50
2019-05-21T06:33:51.245Z,56.25
2019-05-21T06:34:51.245Z,56.25
2019-05-21T06:35:51.312Z,61.88
2019-05-21T06:36:51.297Z,61.88
2019-05-21T06:37:51.324Z,61.88
2019-05-21T06:38:51.350Z,61.88
2019-05-21T06:39:51.374Z,61.88
2019-05-21T06:40:51.398Z,61.88
2019-05-21T06:41:51.428Z,67.50
2019-05-21T06:42:51.462Z,67.50
2019-05-21T06:43:51.493Z,67.50
2019-05-21T06:44:51.514Z,56.25
2019-05-21T06:45:51.532Z,61.88
2019-05-21T06:46:51.564Z,67.50
2019-05-21T06:47:51.584Z,67.50
2019-05-21T06:48:51.615Z,73.13
2019-05-21T06:49:51.641Z,73.13
2019-05-21T06:50:51.671Z,78.75
2019-05-21T06:51:51.690Z,73.13
2019-05-21T06:52:51.727Z,73.13
2019-05-21T06:53:51.744Z,73.13
2019-05-21T06:54:51.776Z,67.50
2019-05-21T06:55:51.797Z,73.13
2019-05-21T06:56:51.839Z,73.13
2019-05-21T06:57:51.847Z,73.13
2019-05-21T06:58:51.884Z,73.13
2019-05-21T06:59:51.901Z,73.13
2019-05-21T07:00:51.969Z,73.13
2019-05-21T07:01:51.956Z,73.13
2019-05-21T07:02:51.992Z,73.13
2019-05-21T07:03:52.034Z,73.13
2019-05-21T07:04:52.045Z,73.13
2019-05-21T07:05:58.727Z,73.13
2019-05-21T07:06:52.089Z,73.13
2019-05-21T07:07:52.123Z,73.13
2019-05-21T07:08:52.145Z,73.13
2019-05-21T07:09:52.182Z,73.13
2019-05-21T07:10:52.210Z,73.13
2019-05-21T07:11:52.237Z,73.13
2019-05-21T07:12:52.262Z,73.13
2019-05-21T07:13:52.274Z,73.13
2019-05-21T07:14:52.312Z,73.13
2019-05-21T07:15:52.338Z,73.13
2019-05-21T07:16:52.370Z,73.13
2019-05-21T07:17:52.414Z,78.75
2019-05-21T07:18:52.475Z,78.75
2019-05-21T07:19:52.451Z,84.38
2019-05-21T07:20:52.467Z,84.38
2019-05-21T07:21:52.483Z,84.38
2019-05-21T07:22:52.691Z,84.38
2019-05-21T07:23:52.543Z,84.38
2019-05-21T07:24:52.581Z,84.38
2019-05-21T07:25:52.600Z,84.38
2019-05-21T07:26:52.678Z,84.38
2019-05-21T07:27:52.643Z,84.38
2019-05-21T07:28:54.420Z,90.00
2019-05-21T07:29:52.706Z,90.00
2019-05-21T07:30:52.745Z,90.00
2019-05-21T07:32:17.901Z,90.00
2019-05-21T07:32:56.969Z,90.00
2019-05-21T07:33:52.811Z,90.00
2019-05-21T07:34:52.838Z,90.00
2019-05-21T07:35:52.873Z,95.63
2019-05-21T07:36:52.895Z,95.63
2019-05-21T07:37:52.943Z,95.63
2019-05-21T07:38:54.242Z,95.63
2019-05-21T07:39:52.973Z,95.63
2019-05-21T07:40:53.024Z,101.25
2019-05-21T07:41:53.028Z,106.88
2019-05-21T07:42:53.069Z,112.50
2019-05-21T07:43:53.076Z,112.50
2019-05-21T07:44:53.107Z,112.50
2019-05-21T07:45:53.131Z,112.50
2019-05-21T07:46:53.169Z,112.50
2019-05-21T07:47:53.186Z,106.88
2019-05-21T07:48:53.279Z,101.25
2019-05-21T07:49:53.259Z,95.63
2019-05-21T07:50:53.291Z,95.63
2019-05-21T07:51:53.296Z,84.38
2019-05-21T07:52:53.329Z,90.00
2019-05-21T07:53:53.372Z,95.63
2019-05-21T07:54:53.373Z,95.63
2019-05-21T07:55:53.397Z,101.25
2019-05-21T07:56:53.662Z,95.63
2019-05-21T07:57:53.500Z,101.25
2019-05-21T07:58:53.479Z,95.63
2019-05-21T07:59:53.529Z,95.63
2019-05-21T08:00:53.612Z,95.63
2019-05-21T08:01:53.575Z,101.25
2019-05-21T08:02:53.581Z,106.88
2019-05-21T08:03:53.683Z,101.25
2019-05-21T08:04:53.641Z,101.25
2019-05-21T08:05:53.675Z,101.25
2019-05-21T08:06:53.699Z,101.25
2019-05-21T08:07:53.720Z,101.25
2019-05-21T08:09:11.772Z,101.25
2019-05-21T08:09:53.774Z,101.25
2019-05-21T08:10:53.790Z,106.88
2019-05-21T08:11:53.920Z,101.25
2019-05-21T08:12:53.877Z,101.25
2019-05-21T08:13:53.886Z,106.88
2019-05-21T08:14:53.930Z,106.88
2019-05-21T08:15:53.958Z,106.88
2019-05-21T08:16:53.975Z,106.88
2019-05-21T08:17:53.981Z,106.88
2019-05-21T08:18:54.043Z,106.88
2019-05-21T08:19:54.034Z,106.88
2019-05-21T08:20:54.078Z,106.88
2019-05-21T08:21:54.090Z,106.88
2019-05-21T08:22:54.118Z,112.50
2019-05-21T08:23:54.188Z,112.50
2019-05-21T08:24:54.182Z,112.50
2019-05-21T08:25:54.205Z,118.13
2019-05-21T08:26:54.236Z,106.88
2019-05-21T08:27:54.261Z,112.50
2019-05-21T08:28:54.463Z,112.50
2019-05-21T08:29:54.326Z,112.50
2019-05-21T08:30:54.354Z,112.50
2019-05-21T08:31:54.368Z,123.75
2019-05-21T08:32:54.383Z,118.13
2019-05-21T08:33:54.413Z,123.75
2019-05-21T08:34:54.446Z,118.13
2019-05-21T08:35:54.477Z,196.88
2019-05-21T08:36:54.491Z,118.13
2019-05-21T08:37:54.524Z,118.13
2019-05-21T08:38:54.570Z,123.75
2019-05-21T08:39:54.586Z,118.13
2019-05-21T08:40:54.609Z,118.13
2019-05-21T08:41:54.625Z,118.13
2019-05-21T08:42:54.670Z,123.75
2019-05-21T08:43:54.702Z,123.75
2019-05-21T08:44:54.707Z,129.38
2019-05-21T08:45:54.743Z,129.38
2019-05-21T08:46:54.771Z,129.38
2019-05-21T08:47:54.800Z,135.00
2019-05-21T08:48:54.817Z,135.00
2019-05-21T08:49:54.843Z,135.00
2019-05-21T08:50:54.890Z,135.00
2019-05-21T08:51:54.903Z,129.38
2019-05-21T08:52:54.926Z,129.38
2019-05-21T08:53:54.955Z,135.00
2019-05-21T08:54:56.425Z,135.00
2019-05-21T08:55:55.030Z,140.63
2019-05-21T08:56:55.032Z,140.63
2019-05-21T08:58:06.425Z,151.88
2019-05-21T08:58:55.103Z,135.00
2019-05-21T09:00:55.179Z,146.25
2019-05-21T09:02:16.204Z,157.50
2019-05-21T09:02:55.213Z,168.75
2019-05-21T09:03:55.250Z,168.75
2019-05-21T09:04:55.267Z,157.50
2019-05-21T09:05:55.328Z,151.88
2019-05-21T09:06:55.354Z,151.88
2019-05-21T09:07:55.351Z,151.88
2019-05-21T09:08:55.382Z,151.88
2019-05-21T09:09:55.398Z,157.50
2019-05-21T09:10:55.412Z,163.13
2019-05-21T09:11:55.479Z,168.75
2019-05-21T09:12:55.499Z,180.00
2019-05-21T09:13:55.506Z,191.25
2019-05-21T09:14:55.523Z,196.88
2019-05-21T09:15:55.590Z,202.50
2019-05-21T09:16:55.584Z,236.25
2019-05-21T09:17:55.622Z,236.25
2019-05-21T09:18:55.644Z,253.13
2019-05-21T09:19:55.665Z,326.25
2019-05-21T09:20:55.686Z,292.50
2019-05-21T09:21:55.720Z,270.00
2019-05-21T09:22:55.742Z,258.75
2019-05-21T09:23:55.768Z,326.25
2019-05-21T09:24:55.800Z,466.88
2019-05-21T09:25:55.824Z,551.25
2019-05-21T09:26:55.864Z,196.88
2019-05-21T09:27:55.877Z,309.38
2019-05-21T09:28:55.911Z,911.25
2019-05-21T09:29:55.937Z,776.25
2019-05-21T09:30:55.961Z,888.75
2019-05-21T09:31:55.993Z,646.88
2019-05-21T09:32:56.017Z,669.38
2019-05-21T09:33:56.043Z,826.88
2019-05-21T09:34:56.078Z,270.00
2019-05-21T09:35:56.099Z,568.13
2019-05-21T09:36:56.130Z,1237.50
2019-05-21T09:37:56.180Z,748.13
2019-05-21T09:38:56.182Z,1192.50
2019-05-21T09:39:56.224Z,686.25
2019-05-21T09:40:56.240Z,360.00
2019-05-21T09:41:56.269Z,1040.63
2019-05-21T09:42:56.292Z,1040.63
2019-05-21T09:43:56.339Z,3172.50
2019-05-21T09:44:56.353Z,5473.13
2019-05-21T09:45:56.381Z,5878.13
2019-05-21T09:46:56.412Z,5810.63
2019-05-21T09:47:56.439Z,315.00
2019-05-21T09:48:56.463Z,270.00
2019-05-21T09:49:56.491Z,247.50
2019-05-21T09:50:56.521Z,303.75
2019-05-21T09:51:56.545Z,562.50
2019-05-21T09:52:56.575Z,1518.75
2019-05-21T09:53:56.600Z,3043.13
2019-05-21T09:54:56.632Z,1023.75
2019-05-21T09:55:56.659Z,545.63
2019-05-21T09:56:56.689Z,3560.63
2019-05-21T09:57:56.716Z,6491.25
2019-05-21T09:58:56.750Z,6440.63
2019-05-21T09:59:56.770Z,6041.25
2019-05-21T10:00:56.801Z,6075.00
2019-05-21T10:01:56.829Z,6243.75
2019-05-21T10:02:56.852Z,6148.13
2019-05-21T10:03:56.891Z,5433.75
2019-05-21T10:04:56.931Z,4786.88
2019-05-21T10:05:56.936Z,6091.88
2019-05-21T10:06:56.979Z,5917.50
2019-05-21T10:07:56.999Z,6350.63
2019-05-21T10:08:57.027Z,6255.00
2019-05-21T10:09:57.057Z,6373.13
2019-05-21T10:10:57.083Z,6086.25
2019-05-21T10:11:57.110Z,6519.38
2019-05-21T10:12:57.145Z,6682.50
2019-05-21T10:13:57.177Z,5917.50
2019-05-21T10:14:57.204Z,4702.50
2019-05-21T10:16:01.196Z,4280.63
2019-05-21T10:16:57.269Z,180.00
2019-05-21T10:17:57.299Z,168.75
2019-05-21T10:18:57.412Z,140.63
2019-05-21T10:19:58.984Z,129.38
2019-05-21T10:20:57.383Z,123.75
2019-05-21T10:21:57.427Z,140.63
2019-05-21T10:22:57.449Z,275.63
2019-05-21T10:23:57.477Z,4578.75
2019-05-21T10:24:57.535Z,4933.13
2019-05-21T10:25:57.553Z,2475.00
2019-05-21T10:26:57.591Z,2716.88
2019-05-21T10:27:57.602Z,916.88
2019-05-21T10:28:57.631Z,669.38
2019-05-21T10:29:57.669Z,967.50
2019-05-21T10:30:57.691Z,5394.38
2019-05-21T10:31:57.719Z,4353.75
2019-05-21T10:32:57.751Z,3858.75
2019-05-21T10:33:57.787Z,2576.25
2019-05-21T10:34:57.826Z,1771.88
2019-05-21T10:35:57.843Z,1108.13
2019-05-21T10:36:57.871Z,6699.38
2019-05-21T10:37:57.922Z,6721.88
2019-05-21T10:38:57.934Z,6873.75
2019-05-21T10:39:57.991Z,6975.00
2019-05-21T10:40:57.997Z,3223.13
2019-05-21T10:41:58.021Z,2013.75
2019-05-21T10:42:58.057Z,6305.63
2019-05-21T10:43:58.084Z,5653.13
2019-05-21T10:44:58.119Z,6086.25
2019-05-21T10:45:58.149Z,6159.38
2019-05-21T10:46:58.197Z,5827.50
2019-05-21T10:47:58.222Z,6288.75
2019-05-21T10:48:58.245Z,6558.75
2019-05-21T10:49:58.276Z,6946.88
2019-05-21T10:50:58.324Z,6952.50
2019-05-21T10:51:58.348Z,6075.00
2019-05-21T10:52:58.378Z,3763.13
2019-05-21T10:53:58.440Z,5321.25
2019-05-21T10:54:58.448Z,6446.25
2019-05-21T10:55:58.470Z,6654.38
2019-05-21T10:56:58.509Z,6733.13
2019-05-21T10:57:58.535Z,6969.38
2019-05-21T10:58:58.574Z,6789.38
2019-05-21T10:59:58.612Z,6738.75
2019-05-21T11:00:58.645Z,6378.75
2019-05-21T11:01:58.673Z,6035.63
2019-05-21T11:02:58.718Z,5456.25
2019-05-21T11:03:58.744Z,3493.13
2019-05-21T11:04:58.781Z,3133.13
2019-05-21T11:06:09.560Z,1001.25
2019-05-21T11:06:58.840Z,1119.38
2019-05-21T11:08:22.261Z,753.75
2019-05-21T11:08:58.900Z,450.00
2019-05-21T11:09:58.963Z,376.88
2019-05-21T11:10:58.968Z,360.00
2019-05-21T11:11:59.018Z,405.00
2019-05-21T11:12:59.054Z,843.75
2019-05-21T11:13:59.070Z,1186.88
2019-05-21T11:14:59.101Z,1411.88
2019-05-21T11:15:59.135Z,1485.00
2019-05-21T11:16:59.174Z,956.25
2019-05-21T11:18:10.632Z,686.25
2019-05-21T11:18:59.230Z,590.63
2019-05-21T11:19:59.272Z,534.38
2019-05-21T11:20:59.299Z,517.50
2019-05-21T11:21:59.327Z,528.75
2019-05-21T11:22:59.375Z,506.25
2019-05-21T11:23:59.414Z,472.50
2019-05-21T11:24:59.419Z,478.13
2019-05-21T11:25:59.446Z,472.50
2019-05-21T11:26:59.489Z,478.13
2019-05-21T11:27:59.509Z,461.25
2019-05-21T11:28:59.558Z,450.00
2019-05-21T11:29:59.572Z,399.38
2019-05-21T11:30:59.609Z,320.63
2019-05-21T11:31:59.640Z,320.63
2019-05-21T11:32:59.666Z,331.88
2019-05-21T11:33:59.698Z,348.75
2019-05-21T11:34:59.740Z,382.50
2019-05-21T11:35:59.769Z,388.13
2019-05-21T11:36:59.783Z,388.13
2019-05-21T11:37:59.839Z,382.50
2019-05-21T11:38:59.845Z,360.00
2019-05-21T11:39:59.891Z,320.63
2019-05-21T11:40:59.953Z,286.88
2019-05-21T11:41:59.938Z,258.75
2019-05-21T11:42:59.966Z,253.13
2019-05-21T11:44:00.000Z,258.75
2019-05-21T11:45:00.033Z,286.88
2019-05-21T11:46:03.021Z,309.38
2019-05-21T11:47:00.094Z,326.25
2019-05-21T11:48:00.133Z,337.50
2019-05-21T11:49:00.146Z,320.63
2019-05-21T11:50:00.187Z,303.75
2019-05-21T11:51:00.207Z,303.75
2019-05-21T11:52:00.237Z,303.75
2019-05-21T11:53:00.268Z,298.13
2019-05-21T11:54:00.302Z,286.88
2019-05-21T11:55:00.354Z,281.25
2019-05-21T11:56:00.354Z,286.88
2019-05-21T11:57:00.440Z,275.63
2019-05-21T11:58:00.413Z,264.38
2019-05-21T11:59:00.448Z,253.13
2019-05-21T12:00:00.473Z,270.00
2019-05-21T12:01:00.513Z,270.00
2019-05-21T12:02:00.568Z,270.00
2019-05-21T12:03:00.571Z,264.38
2019-05-21T12:04:00.596Z,264.38
2019-05-21T12:05:00.620Z,253.13
2019-05-21T12:06:00.661Z,236.25
2019-05-21T12:07:03.219Z,236.25
2019-05-21T12:08:00.709Z,241.88
2019-05-21T12:09:00.735Z,258.75
2019-05-21T12:10:00.769Z,258.75
2019-05-21T12:11:00.817Z,241.88
2019-05-21T12:12:00.836Z,236.25
2019-05-21T12:13:00.860Z,236.25
2019-05-21T12:14:00.888Z,225.00
2019-05-21T12:15:00.931Z,236.25
2019-05-21T12:16:00.943Z,236.25
2019-05-21T12:17:00.984Z,264.38
2019-05-21T12:18:01.002Z,281.25
2019-05-21T12:19:01.030Z,286.88
2019-05-21T12:20:01.133Z,270.00
2019-05-21T12:21:01.146Z,241.88
2019-05-21T12:22:01.201Z,219.38
2019-05-21T12:23:01.161Z,191.25
2019-05-21T12:24:01.208Z,191.25
2019-05-21T12:25:01.205Z,196.88
2019-05-21T12:26:01.241Z,225.00
2019-05-21T12:27:01.309Z,275.63
2019-05-21T12:28:01.305Z,303.75
2019-05-21T12:29:01.324Z,281.25
2019-05-21T12:30:01.394Z,258.75
2019-05-21T12:31:01.460Z,247.50
2019-05-21T12:32:01.439Z,241.88
2019-05-21T12:33:01.448Z,230.63
2019-05-21T12:34:01.490Z,202.50
2019-05-21T12:35:01.494Z,168.75
2019-05-21T12:36:01.519Z,151.88
2019-05-21T12:37:01.548Z,135.00
2019-05-21T12:38:01.581Z,129.38
2019-05-21T12:39:13.889Z,140.63
2019-05-21T12:40:01.638Z,157.50
2019-05-21T12:41:01.674Z,185.63
2019-05-21T12:42:01.704Z,213.75
2019-05-21T12:43:01.733Z,219.38
2019-05-21T12:44:01.764Z,213.75
2019-05-21T12:45:01.796Z,213.75
2019-05-21T12:46:01.810Z,219.38
2019-05-21T12:47:01.852Z,230.63
2019-05-21T12:48:01.872Z,241.88
2019-05-21T12:49:01.894Z,258.75